createdAt,value
2022-09-11T00:01:33.959Z,1.70
2022-09-11T00:04:01.775Z,1.55
2022-09-11T00:06:30.368Z,1.75
2022-09-11T00:08:59.944Z,1.77
2022-09-11T00:11:28.477Z,1.67
2022-09-11T00:13:55.390Z,1.70
2022-09-11T00:16:26.459Z,1.60
2022-09-11T00:18:54.292Z,1.40
2022-09-11T00:21:21.390Z,1.40
2022-09-11T00:23:48.025Z,1.65
2022-09-11T00:26:14.697Z,1.80
2022-09-11T00:28:41.407Z,1.90
2022-09-11T00:31:11.642Z,1.63
2022-09-11T00:33:40.216Z,1.77
2022-09-11T00:36:10.111Z,1.63
2022-09-11T00:38:37.619Z,1.70
2022-09-11T00:41:07.379Z,1.55
2022-09-11T00:43:51.620Z,2.03
2022-09-11T00:46:18.307Z,1.50
2022-09-11T00:48:47.881Z,1.90
2022-09-11T00:51:14.448Z,1.55
2022-09-11T00:53:41.045Z,1.52
2022-09-11T00:56:08.561Z,1.60
2022-09-11T00:58:39.712Z,1.77
2022-09-11T01:01:06.542Z,1.80
2022-09-11T01:03:33.224Z,1.73
2022-09-11T01:06:01.447Z,1.77
2022-09-11T01:08:28.471Z,1.73
2022-09-11T01:11:05.864Z,1.60
2022-09-11T01:13:36.888Z,1.70
2022-09-11T01:16:13.030Z,1.50
2022-09-11T01:18:45.275Z,1.88
2022-09-11T01:21:34.629Z,1.70
2022-09-11T01:24:15.319Z,1.50
2022-09-11T01:27:00.875Z,1.60
2022-09-11T01:29:38.320Z,1.42
2022-09-11T01:32:10.766Z,1.60
2022-09-11T01:34:45.316Z,1.75
2022-09-11T01:37:19.112Z,1.50
2022-09-11T01:39:53.683Z,1.30
2022-09-11T01:42:23.189Z,1.85
2022-09-11T01:44:54.517Z,1.90
2022-09-11T01:47:21.965Z,1.83
2022-09-11T01:49:52.919Z,1.67
2022-09-11T01:52:23.546Z,1.63
2022-09-11T01:54:54.069Z,1.77
2022-09-11T01:57:26.270Z,1.50
2022-09-11T01:59:58.448Z,2.00
2022-09-11T02:02:32.993Z,1.38
2022-09-11T02:05:03.068Z,1.48
2022-09-11T02:07:34.856Z,1.77
2022-09-11T02:10:08.132Z,1.88
2022-09-11T02:12:41.423Z,1.50
2022-09-11T02:15:12.197Z,1.80
2022-09-11T02:17:47.127Z,1.63
2022-09-11T02:20:15.114Z,1.45
2022-09-11T02:22:42.065Z,1.52
2022-09-11T02:25:10.056Z,1.38
2022-09-11T02:27:36.822Z,1.52
2022-09-11T02:30:04.200Z,1.45
2022-09-11T02:32:33.829Z,1.58
2022-09-11T02:35:00.851Z,1.50
2022-09-11T02:37:40.383Z,1.45
2022-09-11T02:40:35.205Z,1.80
2022-09-11T02:43:42.633Z,1.23
2022-09-11T02:46:26.719Z,1.60
2022-09-11T02:49:04.229Z,1.42
2022-09-11T02:51:38.259Z,1.55
2022-09-11T02:54:11.860Z,1.63
2022-09-11T02:56:43.256Z,1.55
2022-09-11T02:59:15.894Z,1.52
2022-09-11T03:01:50.564Z,1.63
2022-09-11T03:04:19.192Z,1.95
2022-09-11T03:06:46.000Z,1.50
2022-09-11T03:09:12.538Z,1.58
2022-09-11T03:11:39.001Z,1.70
2022-09-11T03:14:05.512Z,1.50
2022-09-11T03:16:32.135Z,1.83
2022-09-11T03:18:58.716Z,1.60
2022-09-11T03:21:26.567Z,1.52
2022-09-11T03:23:53.048Z,1.90
2022-09-11T03:26:19.517Z,1.55
2022-09-11T03:28:46.183Z,1.60
2022-09-11T03:31:13.001Z,1.60
2022-09-11T03:33:39.806Z,1.75
2022-09-11T03:36:06.455Z,1.73
2022-09-11T03:38:34.307Z,1.60
2022-09-11T03:41:00.897Z,2.05
2022-09-11T03:43:27.391Z,1.70
2022-09-11T03:45:53.944Z,1.83
2022-09-11T03:48:20.656Z,2.00
2022-09-11T03:50:47.389Z,1.70
2022-09-11T03:53:14.865Z,2.13
2022-09-11T03:55:44.604Z,1.70
2022-09-11T03:58:11.113Z,2.03
2022-09-11T04:00:40.612Z,1.63
2022-09-11T04:03:07.121Z,1.30
2022-09-11T04:05:33.592Z,1.70
2022-09-11T04:08:00.129Z,2.00
2022-09-11T04:10:26.665Z,2.13
2022-09-11T04:12:54.500Z,1.70
2022-09-11T04:15:21.009Z,1.73
2022-09-11T04:17:47.525Z,1.60
2022-09-11T04:20:14.019Z,1.70
2022-09-11T04:22:40.557Z,1.90
2022-09-11T04:25:08.398Z,1.85
2022-09-11T04:27:34.901Z,1.55
2022-09-11T04:30:02.865Z,2.10
2022-09-11T04:32:29.415Z,2.38
2022-09-11T04:34:55.893Z,1.90
2022-09-11T04:37:22.485Z,1.90
2022-09-11T04:39:49.081Z,1.75
2022-09-11T04:42:15.596Z,2.03
2022-09-11T04:44:42.075Z,1.80
2022-09-11T04:47:09.933Z,2.17
2022-09-11T04:49:36.415Z,2.00
2022-09-11T04:52:03.502Z,1.70
2022-09-11T04:54:29.977Z,1.95
2022-09-11T04:56:56.474Z,1.70
2022-09-11T04:59:23.670Z,1.92
2022-09-11T05:01:50.344Z,2.30
2022-09-11T05:04:20.763Z,2.58
2022-09-11T05:06:49.462Z,1.65
2022-09-11T05:09:17.699Z,1.90
2022-09-11T05:11:44.264Z,2.10
2022-09-11T05:14:10.819Z,1.60
2022-09-11T05:16:37.359Z,1.80
2022-09-11T05:19:04.273Z,1.98
2022-09-11T05:21:32.474Z,1.83
2022-09-11T05:24:00.558Z,1.90
2022-09-11T05:26:28.950Z,2.10
2022-09-11T05:28:56.411Z,1.60
2022-09-11T05:31:23.776Z,1.90
2022-09-11T05:33:50.320Z,1.70
2022-09-11T05:36:16.807Z,1.40
2022-09-11T05:38:45.013Z,1.08
2022-09-11T05:41:13.203Z,1.15
2022-09-11T05:43:40.740Z,1.50
2022-09-11T05:46:08.525Z,1.13
2022-09-11T05:48:35.617Z,1.20
2022-09-11T05:51:05.900Z,1.50
2022-09-11T05:53:32.766Z,1.33
2022-09-11T05:56:06.542Z,2.08
2022-09-11T05:58:33.549Z,1.40
2022-09-11T06:01:04.041Z,1.40
2022-09-11T06:03:30.813Z,1.63
2022-09-11T06:05:59.752Z,1.50
2022-09-11T06:08:26.272Z,1.65
2022-09-11T06:10:52.764Z,1.50
2022-09-11T06:13:20.716Z,1.50
2022-09-11T06:15:48.032Z,1.45
2022-09-11T06:18:14.708Z,1.80
2022-09-11T06:20:41.658Z,1.40
2022-09-11T06:23:09.466Z,1.40
2022-09-11T06:25:36.221Z,1.45
2022-09-11T06:28:03.419Z,1.40
2022-09-11T06:30:31.413Z,1.40
2022-09-11T06:32:57.933Z,1.55
2022-09-11T06:35:24.445Z,1.45
2022-09-11T06:37:50.914Z,1.35
2022-09-11T06:40:17.429Z,1.80
2022-09-11T06:42:44.102Z,1.70
2022-09-11T06:45:11.288Z,1.60
2022-09-11T06:47:39.303Z,1.98
2022-09-11T06:50:06.708Z,1.60
2022-09-11T06:52:34.475Z,1.83
2022-09-11T06:55:01.440Z,1.65
2022-09-11T06:57:28.674Z,1.63
2022-09-11T06:59:55.357Z,1.63
2022-09-11T07:02:21.889Z,1.60
2022-09-11T07:04:49.775Z,1.63
2022-09-11T07:07:16.253Z,1.45
2022-09-11T07:09:42.765Z,1.60
2022-09-11T07:12:09.240Z,1.50
2022-09-11T07:14:35.727Z,1.20
2022-09-11T07:17:02.204Z,1.25
2022-09-11T07:19:28.725Z,1.25
2022-09-11T07:21:56.551Z,1.30
2022-09-11T07:24:23.037Z,1.73
2022-09-11T07:26:49.508Z,1.70
2022-09-11T07:29:15.994Z,1.80
2022-09-11T07:31:42.464Z,1.90
2022-09-11T07:34:08.963Z,1.80
2022-09-11T07:36:35.613Z,2.00
2022-09-11T07:39:04.138Z,2.22
2022-09-11T07:41:30.618Z,2.17
2022-09-11T07:43:59.162Z,1.98
2022-09-11T07:46:26.521Z,1.95
2022-09-11T07:48:54.371Z,1.90
2022-09-11T07:51:20.922Z,2.45
2022-09-11T07:53:48.731Z,2.00
2022-09-11T07:56:18.082Z,2.00
2022-09-11T07:58:45.110Z,1.65
2022-09-11T08:01:13.394Z,1.67
2022-09-11T08:03:39.986Z,1.77
2022-09-11T08:06:08.433Z,2.00
2022-09-11T08:08:35.470Z,1.55
2022-09-11T08:11:04.606Z,1.65
2022-09-11T08:13:32.901Z,1.80
2022-09-11T08:15:59.960Z,1.60
2022-09-11T08:18:26.820Z,1.58
2022-09-11T08:20:53.672Z,2.00
2022-09-11T08:23:20.268Z,1.50
2022-09-11T08:25:46.864Z,1.40
2022-09-11T08:28:13.523Z,1.58
2022-09-11T08:30:41.369Z,1.15
2022-09-11T08:33:07.884Z,1.35
2022-09-11T08:35:34.452Z,1.27
2022-09-11T08:38:01.334Z,1.30
2022-09-11T08:40:28.630Z,1.30
2022-09-11T08:42:57.195Z,1.17
2022-09-11T08:45:28.490Z,1.00
2022-09-11T08:47:58.032Z,1.08
2022-09-11T08:50:26.845Z,1.45
2022-09-11T08:52:53.756Z,1.20
2022-09-11T08:55:28.615Z,1.23
2022-09-11T08:58:05.958Z,1.30
2022-09-11T09:00:40.030Z,1.20
2022-09-11T09:03:42.973Z,1.30
2022-09-11T09:06:34.000Z,1.30
2022-09-11T09:09:07.953Z,1.20
2022-09-11T09:11:39.449Z,1.27
2022-09-11T09:14:35.364Z,1.17
2022-09-11T09:17:07.561Z,1.20
2022-09-11T09:19:41.766Z,1.20
2022-09-11T09:22:17.816Z,1.15
2022-09-11T09:24:48.604Z,1.10
2022-09-11T09:27:18.825Z,1.17
2022-09-11T09:29:49.610Z,1.30
2022-09-11T09:32:23.551Z,1.05
2022-09-11T09:34:55.164Z,1.30
2022-09-11T09:37:23.919Z,1.33
2022-09-11T09:39:50.732Z,1.08
2022-09-11T09:42:31.029Z,0.90
2022-09-11T09:45:18.389Z,1.20
2022-09-11T09:47:47.594Z,1.30
2022-09-11T09:50:20.030Z,1.50
2022-09-11T09:52:48.865Z,1.10
2022-09-11T09:55:18.241Z,1.00
2022-09-11T09:57:45.022Z,0.95
2022-09-11T10:00:16.468Z,1.05
2022-09-11T10:02:45.013Z,1.05
2022-09-11T10:05:25.923Z,1.10
2022-09-11T10:07:55.828Z,0.90
2022-09-11T10:10:28.696Z,0.80
2022-09-11T10:13:17.535Z,1.25
2022-09-11T10:15:45.548Z,0.90
2022-09-11T10:18:34.853Z,1.00
2022-09-11T10:21:19.803Z,0.80
2022-09-11T10:23:49.024Z,1.15
2022-09-11T10:26:18.635Z,1.20
2022-09-11T10:28:46.157Z,0.95
2022-09-11T10:31:15.259Z,0.82
2022-09-11T10:33:47.658Z,0.90
2022-09-11T10:36:22.710Z,1.00
2022-09-11T10:38:49.947Z,1.00
2022-09-11T10:41:18.518Z,0.85
2022-09-11T10:43:50.531Z,0.90
2022-09-11T10:46:39.648Z,0.90
2022-09-11T10:49:17.358Z,1.10
2022-09-11T10:51:59.450Z,1.35
2022-09-11T10:54:38.823Z,1.08
2022-09-11T10:57:14.199Z,1.17
2022-09-11T10:59:54.543Z,1.25
2022-09-11T11:02:27.746Z,0.90
2022-09-11T11:04:55.314Z,1.00
2022-09-11T11:07:41.245Z,1.02
2022-09-11T11:10:22.582Z,0.90
2022-09-11T11:13:04.257Z,0.80
2022-09-11T11:15:44.234Z,1.00
2022-09-11T11:18:23.021Z,1.00
2022-09-11T11:20:59.740Z,0.73
2022-09-11T11:23:43.980Z,0.90
2022-09-11T11:26:25.654Z,0.80
2022-09-11T11:29:12.035Z,1.23
2022-09-11T11:31:55.269Z,1.10
2022-09-11T11:34:36.928Z,0.80
2022-09-11T11:37:11.338Z,0.98
2022-09-11T11:39:47.102Z,0.98
2022-09-11T11:42:20.811Z,0.80
2022-09-11T11:44:50.850Z,1.10
2022-09-11T11:47:21.088Z,1.10
2022-09-11T11:49:57.027Z,1.20
2022-09-11T11:52:45.994Z,0.95
2022-09-11T11:55:18.045Z,1.17
2022-09-11T11:57:50.514Z,1.00
2022-09-11T12:00:18.436Z,1.00
2022-09-11T12:02:51.077Z,1.20
2022-09-11T12:05:20.605Z,1.10
2022-09-11T12:07:47.227Z,1.00
2022-09-11T12:10:26.845Z,1.02
2022-09-11T12:12:56.471Z,1.10
2022-09-11T12:15:24.127Z,1.10
2022-09-11T12:17:59.660Z,1.10
2022-09-11T12:20:31.970Z,1.05
2022-09-11T12:22:58.926Z,1.10
2022-09-11T12:26:03.097Z,1.02
2022-09-11T12:28:29.612Z,1.02
2022-09-11T12:30:59.821Z,0.98
2022-09-11T12:33:57.221Z,1.25
2022-09-11T12:36:32.669Z,1.20
2022-09-11T12:39:04.488Z,1.30
2022-09-11T12:41:33.918Z,1.05
2022-09-11T12:44:01.101Z,1.00
2022-09-11T12:47:11.992Z,1.13
2022-09-11T12:49:41.125Z,1.10
2022-09-11T12:52:23.285Z,1.10
2022-09-11T12:54:50.935Z,1.00
2022-09-11T12:57:25.685Z,1.20
2022-09-11T12:59:55.718Z,1.13
2022-09-11T13:02:28.222Z,1.00
2022-09-11T13:04:55.533Z,1.23
2022-09-11T13:07:29.965Z,1.10
2022-09-11T13:10:04.222Z,1.33
2022-09-11T13:12:50.882Z,1.40
2022-09-11T13:15:37.213Z,1.20
2022-09-11T13:18:33.984Z,1.40
2022-09-11T13:21:11.881Z,1.85
2022-09-11T13:23:38.464Z,1.45
2022-09-11T13:26:06.640Z,1.38
2022-09-11T13:28:43.896Z,1.17
2022-09-11T13:31:16.408Z,1.05
2022-09-11T13:33:48.563Z,1.10
2022-09-11T13:36:16.423Z,1.40
2022-09-11T13:38:43.745Z,1.20
2022-09-11T13:41:15.822Z,1.10
2022-09-11T13:43:46.969Z,1.40
2022-09-11T13:46:21.839Z,1.20
2022-09-11T13:48:50.709Z,1.30
2022-09-11T13:51:19.982Z,1.20
2022-09-11T13:53:52.278Z,1.17
2022-09-11T13:56:36.087Z,1.17
2022-09-11T13:59:35.756Z,1.30
2022-09-11T14:02:06.003Z,1.50
2022-09-11T14:04:41.336Z,1.75
2022-09-11T14:07:16.412Z,1.58
2022-09-11T14:09:47.706Z,1.63
2022-09-11T14:12:14.422Z,1.77
2022-09-11T14:14:41.613Z,1.80
2022-09-11T14:17:11.095Z,1.90
2022-09-11T14:19:37.908Z,1.90
2022-09-11T14:22:14.269Z,2.10
2022-09-11T14:24:53.348Z,1.70
2022-09-11T14:27:37.930Z,1.98
2022-09-11T14:30:26.402Z,2.08
2022-09-11T14:33:15.164Z,2.13
2022-09-11T14:35:43.621Z,1.75
2022-09-11T14:38:11.353Z,1.88
2022-09-11T14:40:37.889Z,2.13
2022-09-11T14:43:05.397Z,1.77
2022-09-11T14:45:31.894Z,1.70
2022-09-11T14:47:59.600Z,2.30
2022-09-11T14:50:27.564Z,1.75
2022-09-11T14:52:54.032Z,1.60
2022-09-11T14:55:20.616Z,1.90
2022-09-11T14:57:47.134Z,1.98
2022-09-11T15:00:14.871Z,2.00
2022-09-11T15:02:41.343Z,1.88
2022-09-11T15:05:14.344Z,2.10
2022-09-11T15:07:42.193Z,2.10
2022-09-11T15:10:10.257Z,1.85
2022-09-11T15:12:36.732Z,2.45
2022-09-11T15:15:04.072Z,2.10
2022-09-11T15:17:30.739Z,2.47
2022-09-11T15:19:57.357Z,2.58
2022-09-11T15:22:23.890Z,2.20
2022-09-11T15:24:51.758Z,2.33
2022-09-11T15:27:18.396Z,2.28
2022-09-11T15:29:44.919Z,2.63
2022-09-11T15:32:11.825Z,2.45
2022-09-11T15:34:38.815Z,2.30
2022-09-11T15:37:05.439Z,2.20
2022-09-11T15:39:32.343Z,2.35
2022-09-11T15:42:00.198Z,2.97
2022-09-11T15:44:27.845Z,2.10
2022-09-11T15:46:56.220Z,2.50
2022-09-11T15:49:24.355Z,2.70
2022-09-11T15:51:52.008Z,2.70
2022-09-11T15:54:18.589Z,2.78
2022-09-11T15:56:45.247Z,2.70
2022-09-11T15:59:13.838Z,2.88
2022-09-11T16:01:40.942Z,2.67
2022-09-11T16:04:09.650Z,2.50
2022-09-11T16:06:38.713Z,2.65
2022-09-11T16:09:07.715Z,2.70
2022-09-11T16:11:35.050Z,2.70
2022-09-11T16:14:01.541Z,2.38
2022-09-11T16:16:29.383Z,2.40
2022-09-11T16:18:55.878Z,2.88
2022-09-11T16:21:22.372Z,2.53
2022-09-11T16:23:54.265Z,2.60
2022-09-11T16:26:22.603Z,2.67
2022-09-11T16:28:49.087Z,2.95
2022-09-11T16:31:16.241Z,2.95
2022-09-11T16:33:45.025Z,2.63
2022-09-11T16:36:17.164Z,2.70
2022-09-11T16:38:44.592Z,2.60
2022-09-11T16:41:12.814Z,2.42
2022-09-11T16:43:41.247Z,2.75
2022-09-11T16:46:09.101Z,2.95
2022-09-11T16:48:35.904Z,3.20
2022-09-11T16:51:04.397Z,3.10
2022-09-11T16:53:32.790Z,3.00
2022-09-11T16:55:59.752Z,2.80
2022-09-11T16:58:26.218Z,3.10
2022-09-11T17:00:52.896Z,3.20
2022-09-11T17:03:19.502Z,3.00
2022-09-11T17:05:47.373Z,3.00
2022-09-11T17:08:15.400Z,3.17
2022-09-11T17:10:42.737Z,3.33
2022-09-11T17:13:09.213Z,3.50
2022-09-11T17:15:35.784Z,3.03
2022-09-11T17:18:02.320Z,3.50
2022-09-11T17:20:28.965Z,3.40
2022-09-11T17:22:58.037Z,3.42
2022-09-11T17:25:26.178Z,3.70
2022-09-11T17:27:52.653Z,2.95
2022-09-11T17:30:19.221Z,3.00
2022-09-11T17:32:46.533Z,3.30
2022-09-11T17:35:14.271Z,3.75
2022-09-11T17:37:40.929Z,3.42
2022-09-11T17:40:08.634Z,3.40
2022-09-11T17:42:36.452Z,3.47
2022-09-11T17:45:03.222Z,3.60
2022-09-11T17:47:31.089Z,3.80
2022-09-11T17:49:57.593Z,3.25
2022-09-11T17:52:24.066Z,3.60
2022-09-11T17:54:50.559Z,3.58
2022-09-11T17:57:17.045Z,3.40
2022-09-11T17:59:46.518Z,3.72
2022-09-11T18:02:13.544Z,3.60
2022-09-11T18:04:40.080Z,3.85
2022-09-11T18:07:06.641Z,3.60
2022-09-11T18:09:33.175Z,3.60
2022-09-11T18:11:59.652Z,3.70
2022-09-11T18:14:27.569Z,4.00
2022-09-11T18:16:56.222Z,3.78
2022-09-11T18:19:23.275Z,3.72
2022-09-11T18:21:50.702Z,3.42
2022-09-11T18:24:19.782Z,3.60
2022-09-11T18:26:49.809Z,3.72
2022-09-11T18:29:19.010Z,3.80
2022-09-11T18:31:49.860Z,4.00
2022-09-11T18:34:19.815Z,4.03
2022-09-11T18:36:47.191Z,3.55
2022-09-11T18:39:15.121Z,4.18
2022-09-11T18:41:41.746Z,3.78
2022-09-11T18:44:15.172Z,4.25
2022-09-11T18:46:46.843Z,4.15
2022-09-11T18:49:15.186Z,4.00
2022-09-11T18:51:43.242Z,3.95
2022-09-11T18:54:11.801Z,3.88
2022-09-11T18:56:38.343Z,4.20
2022-09-11T18:59:04.833Z,4.10
2022-09-11T19:01:31.403Z,4.00
2022-09-11T19:03:57.952Z,4.82
2022-09-11T19:06:26.940Z,3.97
2022-09-11T19:08:55.733Z,3.50
2022-09-11T19:11:24.014Z,3.50
2022-09-11T19:13:51.841Z,4.47
2022-09-11T19:16:20.101Z,4.03
2022-09-11T19:18:47.041Z,3.63
2022-09-11T19:21:15.449Z,3.22
2022-09-11T19:23:44.162Z,3.60
2022-09-11T19:26:14.237Z,3.50
2022-09-11T19:28:42.417Z,3.45
2022-09-11T19:31:10.605Z,3.78
2022-09-11T19:33:38.266Z,3.85
2022-09-11T19:36:07.877Z,4.10
2022-09-11T19:38:36.347Z,3.70
2022-09-11T19:41:04.069Z,3.50
2022-09-11T19:43:33.324Z,4.15
2022-09-11T19:46:03.544Z,3.85
2022-09-11T19:48:30.201Z,4.00
2022-09-11T19:50:56.699Z,4.00
2022-09-11T19:53:23.303Z,3.55
2022-09-11T19:55:52.965Z,4.30
2022-09-11T19:58:23.406Z,4.10
2022-09-11T20:00:52.232Z,4.05
2022-09-11T20:03:18.859Z,4.03
2022-09-11T20:05:45.649Z,3.90
2022-09-11T20:08:16.136Z,4.15
2022-09-11T20:10:45.511Z,3.80
2022-09-11T20:13:12.421Z,4.05
2022-09-11T20:15:39.491Z,3.67
2022-09-11T20:18:07.775Z,3.80
2022-09-11T20:20:35.109Z,3.70
2022-09-11T20:23:01.649Z,4.57
2022-09-11T20:25:28.374Z,4.57
2022-09-11T20:27:54.853Z,4.15
2022-09-11T20:30:21.374Z,4.32
2022-09-11T20:32:47.861Z,4.93
2022-09-11T20:35:15.953Z,3.42
2022-09-11T20:37:42.581Z,4.18
2022-09-11T20:40:10.407Z,3.60
2022-09-11T20:42:37.055Z,3.88
2022-09-11T20:45:04.237Z,4.28
2022-09-11T20:47:30.741Z,4.00
2022-09-11T20:49:57.208Z,3.97
2022-09-11T20:52:25.040Z,4.25
2022-09-11T20:54:51.525Z,3.60
2022-09-11T20:57:18.019Z,3.58
2022-09-11T20:59:44.478Z,4.05
2022-09-11T21:02:11.828Z,4.20
2022-09-11T21:04:38.532Z,4.05
2022-09-11T21:07:05.028Z,3.85
2022-09-11T21:09:32.866Z,3.92
2022-09-11T21:11:59.356Z,3.70
2022-09-11T21:14:26.032Z,3.60
2022-09-11T21:16:52.805Z,3.85
2022-09-11T21:19:19.295Z,3.80
2022-09-11T21:21:45.794Z,3.50
2022-09-11T21:24:13.316Z,3.92
2022-09-11T21:26:41.637Z,4.00
2022-09-11T21:29:11.212Z,3.90
2022-09-11T21:31:37.724Z,3.80
2022-09-11T21:34:04.239Z,4.22
2022-09-11T21:36:30.735Z,3.47
2022-09-11T21:38:57.220Z,4.07
2022-09-11T21:41:23.702Z,3.70
2022-09-11T21:43:51.534Z,3.80
2022-09-11T21:46:18.122Z,3.63
2022-09-11T21:48:44.656Z,3.63
2022-09-11T21:51:12.906Z,4.03
2022-09-11T21:53:41.292Z,3.97
2022-09-11T21:56:15.873Z,3.72
2022-09-11T21:58:42.352Z,3.60
2022-09-11T22:01:10.258Z,3.88
2022-09-11T22:03:36.817Z,4.10
2022-09-11T22:06:06.236Z,3.80
2022-09-11T22:08:32.991Z,3.90
2022-09-11T22:11:01.894Z,3.67
2022-09-11T22:13:29.116Z,3.70
2022-09-11T22:15:55.623Z,3.90
2022-09-11T22:18:23.776Z,4.00
2022-09-11T22:20:50.285Z,4.03
2022-09-11T22:23:19.485Z,3.20
2022-09-11T22:25:46.025Z,3.83
2022-09-11T22:28:12.954Z,3.72
2022-09-11T22:30:41.363Z,3.90
2022-09-11T22:33:08.236Z,3.65
2022-09-11T22:35:36.288Z,4.50
2022-09-11T22:38:02.816Z,3.95
2022-09-11T22:40:29.287Z,3.72
2022-09-11T22:42:55.803Z,4.00
2022-09-11T22:45:22.321Z,3.47
2022-09-11T22:47:48.807Z,3.92
2022-09-11T22:50:15.309Z,3.35
2022-09-11T22:52:43.154Z,3.80
2022-09-11T22:55:09.970Z,3.50
2022-09-11T22:57:36.765Z,3.53
2022-09-11T23:00:06.544Z,3.15
2022-09-11T23:02:33.109Z,3.80
2022-09-11T23:04:59.593Z,3.35
2022-09-11T23:07:26.085Z,3.28
2022-09-11T23:09:53.912Z,3.38
2022-09-11T23:12:20.398Z,3.47
2022-09-11T23:14:46.894Z,3.33
2022-09-11T23:17:13.371Z,3.70
2022-09-11T23:19:39.856Z,3.47
2022-09-11T23:22:06.330Z,3.20
2022-09-11T23:24:32.815Z,3.15
2022-09-11T23:27:00.652Z,3.55
2022-09-11T23:29:27.302Z,3.63
2022-09-11T23:31:55.845Z,3.70
2022-09-11T23:34:22.428Z,4.70
2022-09-11T23:36:48.923Z,3.50
2022-09-11T23:39:15.464Z,3.50
2022-09-11T23:41:41.950Z,3.53
2022-09-11T23:44:10.186Z,3.58
2022-09-11T23:46:36.673Z,3.42
2022-09-11T23:49:03.185Z,3.55
2022-09-11T23:51:29.741Z,3.30
2022-09-11T23:53:56.282Z,3.50
2022-09-11T23:56:22.763Z,4.82
2022-09-11T23:58:49.688Z,3.50
